createdAt,value
2023-02-15T00:01:10.081Z,52.40
2023-02-15T00:03:39.219Z,49.45
2023-02-15T00:06:07.662Z,62.50
2023-02-15T00:08:35.722Z,57.30
2023-02-15T00:11:12.710Z,51.65
2023-02-15T00:13:44.344Z,57.38
2023-02-15T00:16:14.283Z,55.63
2023-02-15T00:18:42.296Z,63.15
2023-02-15T00:21:11.511Z,69.85
2023-02-15T00:23:39.393Z,73.32
2023-02-15T00:26:11.627Z,65.28
2023-02-15T00:28:41.247Z,68.85
2023-02-15T00:31:13.270Z,70.22
2023-02-15T00:33:42.176Z,78.82
2023-02-15T00:36:11.439Z,73.78
2023-02-15T00:38:40.410Z,69.90
2023-02-15T00:41:09.514Z,60.70
2023-02-15T00:43:38.386Z,72.28
2023-02-15T00:46:07.243Z,74.30
2023-02-15T00:48:35.272Z,71.45
2023-02-15T00:51:03.462Z,63.65
2023-02-15T00:53:34.172Z,63.63
2023-02-15T00:56:02.414Z,59.22
2023-02-15T00:58:30.629Z,66.00
2023-02-15T01:01:08.584Z,63.95
2023-02-15T01:03:38.665Z,67.32
2023-02-15T01:06:06.725Z,64.80
2023-02-15T01:08:35.554Z,73.82
2023-02-15T01:11:07.945Z,71.70
2023-02-15T01:13:37.361Z,81.63
2023-02-15T01:16:06.325Z,69.65
2023-02-15T01:18:35.158Z,59.53
2023-02-15T01:21:11.815Z,59.47
2023-02-15T01:23:40.255Z,58.47
2023-02-15T01:26:09.165Z,56.00
2023-02-15T01:28:38.129Z,47.38
2023-02-15T01:31:08.772Z,40.50
2023-02-15T01:33:38.080Z,41.70
2023-02-15T01:36:07.046Z,47.95
2023-02-15T01:38:36.625Z,52.33
2023-02-15T01:41:28.209Z,47.33
2023-02-15T01:44:01.101Z,53.53
2023-02-15T01:46:36.388Z,64.03
2023-02-15T01:49:17.391Z,84.45
2023-02-15T01:51:48.680Z,62.80
2023-02-15T01:54:29.014Z,60.88
2023-02-15T01:57:04.052Z,60.25
2023-02-15T01:59:34.586Z,78.35
2023-02-15T02:02:04.895Z,65.50
2023-02-15T02:04:48.453Z,63.33
2023-02-15T02:07:20.559Z,42.03
2023-02-15T02:09:49.631Z,42.85
2023-02-15T02:12:19.568Z,48.92
2023-02-15T02:14:49.434Z,46.95
2023-02-15T02:17:34.221Z,48.25
2023-02-15T02:20:08.277Z,41.63
2023-02-15T02:22:57.911Z,42.65
2023-02-15T02:25:53.991Z,41.88
2023-02-15T02:28:39.339Z,42.90
2023-02-15T02:31:29.079Z,51.88
2023-02-15T02:34:12.371Z,51.40
2023-02-15T02:37:19.370Z,57.70
2023-02-15T02:39:53.084Z,50.85
2023-02-15T02:42:21.432Z,43.95
2023-02-15T02:44:54.813Z,46.78
2023-02-15T02:47:32.467Z,48.10
2023-02-15T02:50:06.768Z,40.22
2023-02-15T02:52:46.279Z,42.85
2023-02-15T02:55:21.094Z,36.28
2023-02-15T02:58:30.628Z,37.13
2023-02-15T03:01:14.671Z,40.38
2023-02-15T03:03:47.727Z,39.17
2023-02-15T03:06:25.219Z,43.85
2023-02-15T03:08:59.813Z,42.80
2023-02-15T03:11:28.012Z,45.47
2023-02-15T03:13:56.980Z,45.40
2023-02-15T03:16:27.216Z,53.22
2023-02-15T03:19:15.073Z,50.08
2023-02-15T03:22:04.704Z,43.70
2023-02-15T03:24:38.606Z,43.95
2023-02-15T03:27:19.967Z,43.88
2023-02-15T03:29:53.339Z,48.25
2023-02-15T03:32:23.492Z,43.72
2023-02-15T03:34:52.112Z,47.58
2023-02-15T03:37:23.399Z,43.10
2023-02-15T03:40:46.582Z,49.88
2023-02-15T03:43:23.389Z,51.95
2023-02-15T03:45:56.808Z,51.90
2023-02-15T03:51:20.502Z,48.42
2023-02-15T03:53:50.584Z,49.55
2023-02-15T03:56:19.070Z,47.38
2023-02-15T03:59:05.748Z,46.08
2023-02-15T04:01:45.368Z,48.78
2023-02-15T04:04:24.629Z,49.47
2023-02-15T04:06:53.482Z,43.88
2023-02-15T04:09:40.043Z,41.47
2023-02-15T04:12:08.564Z,36.20
2023-02-15T04:14:55.174Z,35.58
2023-02-15T04:17:24.146Z,38.25
2023-02-15T04:23:27.116Z,38.20
2023-02-15T04:25:55.008Z,37.85
2023-02-15T04:28:23.375Z,35.40
2023-02-15T04:30:51.692Z,38.22
2023-02-15T04:33:20.016Z,45.17
2023-02-15T04:35:48.262Z,42.15
2023-02-15T04:38:17.351Z,44.92
2023-02-15T04:40:46.073Z,44.97
2023-02-15T04:43:14.592Z,45.13
2023-02-15T04:45:42.790Z,44.20
2023-02-15T04:48:10.783Z,39.22
2023-02-15T04:50:39.267Z,39.88
2023-02-15T04:53:07.768Z,41.92
2023-02-15T04:55:35.707Z,46.60
2023-02-15T04:58:03.715Z,46.92
2023-02-15T05:00:32.840Z,51.72
2023-02-15T05:03:00.978Z,52.22
2023-02-15T05:05:29.091Z,44.25
2023-02-15T05:07:57.460Z,40.03
2023-02-15T05:10:26.320Z,40.47
2023-02-15T05:12:54.481Z,34.60
2023-02-15T05:15:23.375Z,39.03
2023-02-15T05:17:51.689Z,40.33
2023-02-15T05:20:20.131Z,39.05
2023-02-15T05:22:49.004Z,34.95
2023-02-15T05:25:36.060Z,35.45
2023-02-15T05:28:22.123Z,33.45
2023-02-15T05:30:54.299Z,42.35
2023-02-15T05:33:26.770Z,48.72
2023-02-15T05:35:58.044Z,47.67
2023-02-15T05:38:26.286Z,54.55
2023-02-15T05:40:54.540Z,83.32
2023-02-15T05:43:23.323Z,49.53
2023-02-15T05:45:53.573Z,82.90
2023-02-15T05:48:24.142Z,48.72
2023-02-15T05:51:14.453Z,48.33
2023-02-15T05:53:42.670Z,47.90
2023-02-15T05:56:35.831Z,51.67
2023-02-15T05:59:03.891Z,44.22
2023-02-15T06:01:32.332Z,47.00
2023-02-15T06:04:00.299Z,52.42
2023-02-15T06:06:28.438Z,50.13
2023-02-15T06:08:57.305Z,52.03
2023-02-15T06:11:25.487Z,48.05
2023-02-15T06:13:54.043Z,49.40
2023-02-15T06:16:23.050Z,55.63
2023-02-15T06:18:53.645Z,49.65
2023-02-15T06:21:21.879Z,49.35
2023-02-15T06:23:49.782Z,44.85
2023-02-15T06:26:17.878Z,40.90
2023-02-15T06:28:45.828Z,37.53
2023-02-15T06:31:14.039Z,40.03
2023-02-15T06:33:42.174Z,40.85
2023-02-15T06:36:10.245Z,32.70
2023-02-15T06:38:38.730Z,31.73
2023-02-15T06:41:07.508Z,37.95
2023-02-15T06:43:36.195Z,38.28
2023-02-15T06:46:04.529Z,36.17
2023-02-15T06:48:32.789Z,37.25
2023-02-15T06:51:01.382Z,36.17
2023-02-15T06:53:30.033Z,31.10
2023-02-15T06:56:10.231Z,27.42
2023-02-15T06:58:40.454Z,29.05
2023-02-15T07:01:10.247Z,29.55
2023-02-15T07:03:38.523Z,30.67
2023-02-15T07:06:09.458Z,38.80
2023-02-15T07:08:39.231Z,42.55
2023-02-15T07:11:26.742Z,36.55
2023-02-15T07:13:55.460Z,35.35
2023-02-15T07:16:23.647Z,41.75
2023-02-15T07:18:52.393Z,45.85
2023-02-15T07:21:20.421Z,38.65
2023-02-15T07:23:48.904Z,47.53
2023-02-15T07:26:17.336Z,47.00
2023-02-15T07:28:45.562Z,40.60
2023-02-15T07:31:13.530Z,44.13
2023-02-15T07:33:41.649Z,40.20
2023-02-15T07:36:13.303Z,43.35
2023-02-15T07:38:42.804Z,50.40
2023-02-15T07:41:13.627Z,84.47
2023-02-15T07:43:44.231Z,61.67
2023-02-15T07:46:16.308Z,56.03
2023-02-15T07:48:45.376Z,43.90
2023-02-15T07:51:14.094Z,49.67
2023-02-15T07:53:43.027Z,45.42
2023-02-15T07:56:13.386Z,46.58
2023-02-15T07:58:55.040Z,45.13
2023-02-15T08:01:32.378Z,49.30
2023-02-15T08:04:01.439Z,41.20
2023-02-15T08:06:33.265Z,40.25
2023-02-15T08:09:04.215Z,44.22
2023-02-15T08:11:34.515Z,42.65
2023-02-15T08:14:21.584Z,36.38
2023-02-15T08:16:52.137Z,32.28
2023-02-15T08:19:28.928Z,32.78
2023-02-15T08:21:59.344Z,30.88
2023-02-15T08:24:33.346Z,30.98
2023-02-15T08:27:06.006Z,36.35
2023-02-15T08:29:36.706Z,29.88
2023-02-15T08:32:08.255Z,27.27
2023-02-15T08:34:42.984Z,30.30
2023-02-15T08:37:11.033Z,30.27
2023-02-15T08:39:39.238Z,26.15
2023-02-15T08:42:07.743Z,26.80
2023-02-15T08:44:36.448Z,26.75
2023-02-15T08:47:05.194Z,30.65
2023-02-15T08:49:33.823Z,26.67
2023-02-15T08:52:01.892Z,29.10
2023-02-15T08:54:29.984Z,28.60
2023-02-15T08:56:58.338Z,31.95
2023-02-15T08:59:28.035Z,28.60
2023-02-15T09:01:56.567Z,26.60
2023-02-15T09:04:24.949Z,30.73
2023-02-15T09:06:53.348Z,31.48
2023-02-15T09:09:21.917Z,27.25
2023-02-15T09:11:57.873Z,27.85
2023-02-15T09:14:28.867Z,31.40
2023-02-15T09:16:56.951Z,29.83
2023-02-15T09:19:25.666Z,28.52
2023-02-15T09:21:54.417Z,26.02
2023-02-15T09:24:23.127Z,21.45
2023-02-15T09:26:51.037Z,24.13
2023-02-15T09:29:20.205Z,28.13
2023-02-15T09:31:51.959Z,23.83
2023-02-15T09:34:22.860Z,17.30
2023-02-15T09:36:52.150Z,20.10
2023-02-15T09:39:24.893Z,22.85
2023-02-15T09:41:55.940Z,36.70
2023-02-15T09:44:57.610Z,26.50
2023-02-15T09:47:29.180Z,26.88
2023-02-15T09:50:10.071Z,21.73
2023-02-15T09:52:51.132Z,24.35
2023-02-15T09:55:38.386Z,20.02
2023-02-15T09:58:31.918Z,19.90
2023-02-15T10:01:21.714Z,18.23
2023-02-15T10:04:13.006Z,26.38
2023-02-15T10:07:04.674Z,24.75
2023-02-15T10:09:58.758Z,34.42
2023-02-15T10:13:07.996Z,34.50
2023-02-15T10:15:46.401Z,33.90
2023-02-15T10:18:36.316Z,28.48
2023-02-15T10:21:45.657Z,26.05
2023-02-15T10:24:19.282Z,20.10
2023-02-15T10:26:49.363Z,21.08
2023-02-15T10:29:41.051Z,20.30
2023-02-15T10:32:24.533Z,20.38
2023-02-15T10:35:04.693Z,21.45
2023-02-15T10:37:50.549Z,26.33
2023-02-15T10:40:38.510Z,29.80
2023-02-15T10:43:28.488Z,28.23
2023-02-15T10:46:13.658Z,26.42
2023-02-15T10:48:54.090Z,26.40
2023-02-15T10:51:27.742Z,23.80
2023-02-15T10:54:09.898Z,27.75
2023-02-15T10:56:45.976Z,23.48
2023-02-15T10:59:26.180Z,37.90
2023-02-15T11:02:15.607Z,30.85
2023-02-15T11:04:50.474Z,25.63
2023-02-15T11:07:39.368Z,33.75
2023-02-15T11:10:38.900Z,27.80
2023-02-15T11:13:21.686Z,17.23
2023-02-15T11:16:14.908Z,14.23
2023-02-15T11:18:51.382Z,16.42
2023-02-15T11:21:28.889Z,15.07
2023-02-15T11:23:57.005Z,14.80
2023-02-15T11:26:35.164Z,12.63
2023-02-15T11:29:09.078Z,13.07
2023-02-15T11:31:52.542Z,15.70
2023-02-15T11:36:54.065Z,20.25
2023-02-15T11:39:23.310Z,19.63
2023-02-15T11:41:58.292Z,18.02
2023-02-15T11:44:37.003Z,18.08
2023-02-15T11:47:11.640Z,17.20
2023-02-15T11:49:40.648Z,19.00
2023-02-15T11:52:13.335Z,15.75
2023-02-15T11:54:51.167Z,15.48
2023-02-15T11:57:28.243Z,19.48
2023-02-15T12:00:05.340Z,17.08
2023-02-15T12:02:38.730Z,16.13
2023-02-15T12:05:14.098Z,16.67
2023-02-15T12:07:51.725Z,16.15
2023-02-15T12:10:23.675Z,15.23
2023-02-15T12:13:15.163Z,15.57
2023-02-15T12:15:47.670Z,16.75
2023-02-15T12:18:35.094Z,14.93
2023-02-15T12:21:27.517Z,12.98
2023-02-15T12:23:59.445Z,15.15
2023-02-15T12:26:31.503Z,15.23
2023-02-15T12:29:14.468Z,17.55
2023-02-15T12:31:46.064Z,15.68
2023-02-15T12:34:28.371Z,15.95
2023-02-15T12:36:59.228Z,15.43
2023-02-15T12:39:34.193Z,18.52
2023-02-15T12:42:20.490Z,15.82
2023-02-15T12:45:03.847Z,17.20
2023-02-15T12:47:33.519Z,16.20
2023-02-15T12:50:18.249Z,19.30
2023-02-15T12:52:49.398Z,17.88
2023-02-15T12:55:26.613Z,19.27
2023-02-15T12:58:19.424Z,18.42
2023-02-15T13:00:48.808Z,21.00
2023-02-15T13:03:25.101Z,19.02
2023-02-15T13:05:56.840Z,21.38
2023-02-15T13:08:47.709Z,21.48
2023-02-15T13:11:31.360Z,22.65
2023-02-15T13:16:38.011Z,21.05
2023-02-15T13:19:18.289Z,22.13
2023-02-15T13:21:49.143Z,23.67
2023-02-15T13:24:23.652Z,21.40
2023-02-15T13:27:01.061Z,22.42
2023-02-15T13:29:39.667Z,22.58
2023-02-15T13:32:30.723Z,24.15
2023-02-15T13:35:02.112Z,25.73
2023-02-15T13:37:52.875Z,22.02
2023-02-15T13:40:31.397Z,21.00
2023-02-15T13:43:24.151Z,18.90
2023-02-15T13:46:07.680Z,19.33
2023-02-15T13:51:21.825Z,20.60
2023-02-15T13:54:04.681Z,20.33
2023-02-15T13:56:32.688Z,20.95
2023-02-15T13:59:36.789Z,19.15
2023-02-15T14:02:47.339Z,20.38
2023-02-15T14:05:43.241Z,20.60
2023-02-15T14:08:36.382Z,23.20
2023-02-15T14:11:23.951Z,22.05
2023-02-15T14:13:54.875Z,21.55
2023-02-15T14:16:40.492Z,22.73
2023-02-15T14:19:43.252Z,22.42
2023-02-15T14:22:38.536Z,23.88
2023-02-15T14:25:45.050Z,23.63
2023-02-15T14:28:16.320Z,21.63
2023-02-15T14:30:49.826Z,25.98
2023-02-15T14:33:41.076Z,21.58
2023-02-15T14:36:15.166Z,20.25
2023-02-15T14:39:30.332Z,23.98
2023-02-15T14:42:06.746Z,21.25
2023-02-15T14:45:05.281Z,21.08
2023-02-15T14:47:42.371Z,19.52
2023-02-15T14:50:44.062Z,19.40
2023-02-15T14:53:28.653Z,23.17
2023-02-15T14:56:18.728Z,22.88
2023-02-15T14:58:54.910Z,24.27
2023-02-15T15:01:42.147Z,18.30
2023-02-15T15:04:25.047Z,21.10
2023-02-15T15:07:22.796Z,20.15
2023-02-15T15:10:21.238Z,20.30
2023-02-15T15:12:51.378Z,19.88
2023-02-15T15:15:27.868Z,19.45
2023-02-15T15:18:28.122Z,19.70
2023-02-15T15:20:56.929Z,21.83
2023-02-15T15:23:41.805Z,19.00
2023-02-15T15:26:23.740Z,17.80
2023-02-15T15:28:51.670Z,20.15
2023-02-15T15:31:38.731Z,23.38
2023-02-15T15:34:22.734Z,22.08
2023-02-15T15:37:34.445Z,20.23
2023-02-15T15:40:23.455Z,20.00
2023-02-15T15:43:09.568Z,19.75
2023-02-15T15:45:58.440Z,20.35
2023-02-15T15:48:30.692Z,22.05
2023-02-15T15:51:02.449Z,17.08
2023-02-15T15:53:35.498Z,18.08
2023-02-15T15:56:09.463Z,18.05
2023-02-15T15:58:43.608Z,21.08
2023-02-15T16:01:15.865Z,21.75
2023-02-15T16:03:52.436Z,19.73
2023-02-15T16:06:30.728Z,23.45
2023-02-15T16:08:59.435Z,24.15
2023-02-15T16:11:31.336Z,26.33
2023-02-15T16:13:59.781Z,23.83
2023-02-15T16:16:30.605Z,32.28
2023-02-15T16:19:00.770Z,29.90
2023-02-15T16:21:33.124Z,24.95
2023-02-15T16:24:21.332Z,26.52
2023-02-15T16:27:18.617Z,29.77
2023-02-15T16:29:47.256Z,27.20
2023-02-15T16:32:25.720Z,29.00
2023-02-15T16:35:03.325Z,26.48
2023-02-15T16:37:36.406Z,30.08
2023-02-15T16:40:07.080Z,29.88
2023-02-15T16:42:36.597Z,30.35
2023-02-15T16:45:17.598Z,34.15
2023-02-15T16:47:51.362Z,32.30
2023-02-15T16:50:24.475Z,37.63
2023-02-15T16:52:53.839Z,42.35
2023-02-15T16:55:33.298Z,38.63
2023-02-15T16:58:05.605Z,34.00
2023-02-15T17:00:38.339Z,46.63
2023-02-15T17:03:23.559Z,43.05
2023-02-15T17:05:55.456Z,53.33
2023-02-15T17:08:34.479Z,54.80
2023-02-15T17:11:16.563Z,57.88
2023-02-15T17:14:06.702Z,42.10
2023-02-15T17:16:37.175Z,47.13
2023-02-15T17:19:30.665Z,48.25
2023-02-15T17:22:01.817Z,50.85
2023-02-15T17:24:44.718Z,74.22
2023-02-15T17:27:18.474Z,52.47
2023-02-15T17:29:53.854Z,41.53
2023-02-15T17:32:25.742Z,47.90
2023-02-15T17:35:22.786Z,54.28
2023-02-15T17:37:51.952Z,45.67
2023-02-15T17:40:32.343Z,46.10
2023-02-15T17:43:00.569Z,43.97
2023-02-15T17:45:44.230Z,36.92
2023-02-15T17:50:45.526Z,45.95
2023-02-15T17:53:16.016Z,40.58
2023-02-15T17:55:44.378Z,40.97
2023-02-15T17:58:15.531Z,46.55
2023-02-15T18:01:05.517Z,44.25
2023-02-15T18:04:07.576Z,53.03
2023-02-15T18:06:56.444Z,53.88
2023-02-15T18:09:43.850Z,51.85
2023-02-15T18:12:23.221Z,67.50
2023-02-15T18:14:52.149Z,83.78
2023-02-15T18:17:22.759Z,83.80
2023-02-15T18:19:50.850Z,59.22
2023-02-15T18:22:20.426Z,65.63
2023-02-15T18:24:49.763Z,69.75
2023-02-15T18:27:18.102Z,60.65
2023-02-15T18:29:46.547Z,58.60
2023-02-15T18:32:36.490Z,51.50
2023-02-15T18:35:31.619Z,54.38
2023-02-15T18:38:01.561Z,57.55
2023-02-15T18:40:30.243Z,60.13
2023-02-15T18:42:58.200Z,58.72
2023-02-15T18:45:33.513Z,55.40
2023-02-15T18:48:01.909Z,56.95
2023-02-15T18:50:38.215Z,57.90
2023-02-15T18:53:11.747Z,53.53
2023-02-15T18:58:14.526Z,46.03
2023-02-15T19:00:43.976Z,52.63
2023-02-15T19:03:18.320Z,65.28
2023-02-15T19:05:47.700Z,63.40
2023-02-15T19:08:24.604Z,73.18
2023-02-15T19:10:53.306Z,80.63
2023-02-15T19:13:21.701Z,71.82
2023-02-15T19:15:49.726Z,66.90
2023-02-15T19:18:19.270Z,78.20
2023-02-15T19:20:48.624Z,74.38
2023-02-15T19:23:23.157Z,69.95
2023-02-15T19:25:54.191Z,64.43
2023-02-15T19:28:30.435Z,64.25
2023-02-15T19:30:59.137Z,69.93
2023-02-15T19:33:27.511Z,76.18
2023-02-15T19:35:57.804Z,64.63
2023-02-15T19:38:32.665Z,78.07
2023-02-15T19:41:08.006Z,72.13
2023-02-15T19:43:36.332Z,68.43
2023-02-15T19:46:05.214Z,53.78
2023-02-15T19:48:33.306Z,60.42
2023-02-15T19:51:01.251Z,47.85
2023-02-15T19:53:30.266Z,51.15
2023-02-15T19:55:58.513Z,46.65
2023-02-15T19:58:26.672Z,49.67
2023-02-15T20:00:54.888Z,50.53
2023-02-15T20:03:23.662Z,52.38
2023-02-15T20:05:52.529Z,50.58
2023-02-15T20:08:23.083Z,53.17
2023-02-15T20:10:52.581Z,66.00
2023-02-15T20:13:22.744Z,61.45
2023-02-15T20:15:52.144Z,58.15
2023-02-15T20:18:22.594Z,54.45
2023-02-15T20:20:53.482Z,46.00
2023-02-15T20:23:30.444Z,46.67
2023-02-15T20:26:01.710Z,48.42
2023-02-15T20:28:32.188Z,39.78
2023-02-15T20:31:00.717Z,45.63
2023-02-15T20:33:29.593Z,36.85
2023-02-15T20:35:59.696Z,42.20
2023-02-15T20:38:30.924Z,47.05
2023-02-15T20:41:18.924Z,50.38
2023-02-15T20:43:46.978Z,51.15
2023-02-15T20:46:15.187Z,47.00
2023-02-15T20:48:43.390Z,43.78
2023-02-15T20:51:18.088Z,46.80
2023-02-15T20:53:46.615Z,66.53
2023-02-15T20:56:23.137Z,43.88
2023-02-15T20:58:53.473Z,51.70
2023-02-15T21:01:21.622Z,40.35
2023-02-15T21:03:49.966Z,44.58
2023-02-15T21:06:18.613Z,39.17
2023-02-15T21:08:46.662Z,49.63
2023-02-15T21:11:21.256Z,57.97
2023-02-15T21:13:51.336Z,42.92
2023-02-15T21:16:20.154Z,45.83
2023-02-15T21:18:48.249Z,46.15
2023-02-15T21:21:23.892Z,55.53
2023-02-15T21:23:53.371Z,71.10
2023-02-15T21:26:22.882Z,67.22
2023-02-15T21:28:51.702Z,77.25
2023-02-15T21:31:25.410Z,59.80
2023-02-15T21:33:53.693Z,52.33
2023-02-15T21:36:25.452Z,50.60
2023-02-15T21:38:56.297Z,51.38
2023-02-15T21:41:56.911Z,45.60
2023-02-15T21:44:43.748Z,59.97
2023-02-15T21:47:37.996Z,80.78
2023-02-15T21:50:28.657Z,72.82
2023-02-15T21:52:57.640Z,75.57
2023-02-15T21:55:26.703Z,72.57
2023-02-15T21:57:56.087Z,63.13
2023-02-15T22:00:26.755Z,60.28
2023-02-15T22:02:58.300Z,62.80
2023-02-15T22:05:30.677Z,60.17
2023-02-15T22:07:58.845Z,55.15
2023-02-15T22:10:31.875Z,61.45
2023-02-15T22:13:03.830Z,52.40
2023-02-15T22:15:37.848Z,51.47
2023-02-15T22:18:07.196Z,43.40
2023-02-15T22:20:35.608Z,38.22
2023-02-15T22:23:03.653Z,37.85
2023-02-15T22:25:31.925Z,34.10
2023-02-15T22:27:59.851Z,49.60
2023-02-15T22:30:33.922Z,71.10
2023-02-15T22:33:01.995Z,54.08
2023-02-15T22:35:32.727Z,47.40
2023-02-15T22:38:01.404Z,45.30
2023-02-15T22:40:32.830Z,43.05
2023-02-15T22:43:03.689Z,34.45
2023-02-15T22:45:35.825Z,37.15
2023-02-15T22:48:04.883Z,35.55
2023-02-15T22:50:44.033Z,39.03
2023-02-15T22:53:15.464Z,33.08
2023-02-15T22:55:44.304Z,42.00
2023-02-15T22:58:23.785Z,40.55
2023-02-15T23:00:51.867Z,37.60
2023-02-15T23:03:26.440Z,42.58
2023-02-15T23:05:54.536Z,40.92
2023-02-15T23:08:22.471Z,41.03
2023-02-15T23:10:55.243Z,41.78
2023-02-15T23:13:27.685Z,45.00
2023-02-15T23:15:58.965Z,47.92
2023-02-15T23:18:32.406Z,43.63
2023-02-15T23:21:04.494Z,42.65
2023-02-15T23:23:34.766Z,50.92
2023-02-15T23:26:04.933Z,39.38
2023-02-15T23:28:38.778Z,33.03
2023-02-15T23:31:28.292Z,33.63
2023-02-15T23:33:57.660Z,32.80
2023-02-15T23:36:26.524Z,38.13
2023-02-15T23:38:57.112Z,40.90
2023-02-15T23:41:28.729Z,48.28
2023-02-15T23:43:57.735Z,50.80
2023-02-15T23:46:30.595Z,45.67
2023-02-15T23:48:59.409Z,43.25
2023-02-15T23:51:31.900Z,49.08
2023-02-15T23:54:00.315Z,48.03
2023-02-15T23:56:28.528Z,40.72
2023-02-15T23:58:56.856Z,47.67
